createdAt,value
2023-04-20T00:01:57.698Z,3.60
2023-04-20T00:04:25.223Z,3.60
2023-04-20T00:06:52.988Z,3.60
2023-04-20T00:09:20.433Z,3.60
2023-04-20T00:11:48.222Z,3.60
2023-04-20T00:14:16.241Z,3.50
2023-04-20T00:16:43.768Z,3.50
2023-04-20T00:19:11.591Z,3.50
2023-04-20T00:21:39.119Z,3.50
2023-04-20T00:24:07.263Z,3.50
2023-04-20T00:26:35.315Z,3.50
2023-04-20T00:29:03.721Z,3.40
2023-04-20T00:31:32.047Z,3.50
2023-04-20T00:33:59.604Z,3.50
2023-04-20T00:36:27.908Z,3.40
2023-04-20T00:38:55.496Z,3.50
2023-04-20T00:41:23.376Z,3.50
2023-04-20T00:43:52.413Z,3.50
2023-04-20T00:46:23.419Z,3.50
2023-04-20T00:48:54.068Z,3.50
2023-04-20T00:51:22.452Z,3.50
2023-04-20T00:53:50.035Z,3.50
2023-04-20T00:56:19.317Z,3.50
2023-04-20T00:58:47.203Z,3.50
2023-04-20T01:01:17.685Z,3.50
2023-04-20T01:03:47.146Z,3.50
2023-04-20T01:06:15.505Z,3.60
2023-04-20T01:08:51.379Z,3.50
2023-04-20T01:11:18.999Z,3.60
2023-04-20T01:13:46.498Z,3.60
2023-04-20T01:16:14.108Z,3.60
2023-04-20T01:18:44.145Z,3.50
2023-04-20T01:21:13.100Z,3.50
2023-04-20T01:23:40.769Z,3.60
2023-04-20T01:26:10.385Z,3.60
2023-04-20T01:28:38.184Z,3.50
2023-04-20T01:31:07.426Z,3.60
2023-04-20T01:33:35.437Z,3.60
2023-04-20T01:36:04.595Z,3.60
2023-04-20T01:38:34.535Z,3.60
2023-04-20T01:41:08.052Z,3.60
2023-04-20T01:43:37.232Z,3.60
2023-04-20T01:46:06.182Z,3.60
2023-04-20T01:48:34.271Z,3.70
2023-04-20T01:51:01.956Z,3.70
2023-04-20T01:53:29.410Z,3.70
2023-04-20T01:55:56.884Z,3.70
2023-04-20T01:58:24.302Z,3.70
2023-04-20T02:00:51.874Z,3.70
2023-04-20T02:03:19.453Z,3.70
2023-04-20T02:05:47.961Z,3.60
2023-04-20T02:08:15.371Z,3.60
2023-04-20T02:10:42.899Z,3.50
2023-04-20T02:13:10.461Z,3.50
2023-04-20T02:15:37.967Z,3.50
2023-04-20T02:18:05.602Z,3.50
2023-04-20T02:20:33.292Z,3.50
2023-04-20T02:23:00.770Z,3.50
2023-04-20T02:25:28.739Z,3.50
2023-04-20T02:27:56.234Z,3.40
2023-04-20T02:30:23.694Z,3.40
2023-04-20T02:32:51.277Z,3.40
2023-04-20T02:35:18.817Z,3.40
2023-04-20T02:37:46.617Z,3.30
2023-04-20T02:40:14.762Z,3.30
2023-04-20T02:42:42.408Z,3.30
2023-04-20T02:45:11.996Z,3.40
2023-04-20T02:47:41.655Z,3.30
2023-04-20T02:50:10.483Z,3.30
2023-04-20T02:52:54.833Z,3.30
2023-04-20T02:55:22.394Z,3.30
2023-04-20T02:57:54.204Z,3.30
2023-04-20T03:00:25.536Z,3.30
2023-04-20T03:03:04.936Z,3.30
2023-04-20T03:05:33.175Z,3.30
2023-04-20T03:08:01.192Z,3.30
2023-04-20T03:10:28.801Z,3.20
2023-04-20T03:13:14.474Z,3.20
2023-04-20T03:15:51.947Z,3.20
2023-04-20T03:18:33.022Z,3.10
2023-04-20T03:21:01.471Z,3.10
2023-04-20T03:23:31.832Z,3.10
2023-04-20T03:26:01.871Z,3.10
2023-04-20T03:28:42.073Z,3.10
2023-04-20T03:31:12.139Z,3.10
2023-04-20T03:33:39.757Z,3.10
2023-04-20T03:36:07.642Z,3.10
2023-04-20T03:38:35.577Z,3.00
2023-04-20T03:41:03.175Z,3.10
2023-04-20T03:43:30.705Z,3.10
2023-04-20T03:45:58.256Z,3.00
2023-04-20T03:48:25.921Z,3.00
2023-04-20T03:50:53.562Z,3.00
2023-04-20T03:53:21.224Z,3.00
2023-04-20T03:55:48.809Z,3.00
2023-04-20T03:58:21.592Z,3.00
2023-04-20T04:01:04.224Z,3.00
2023-04-20T04:03:33.169Z,3.00
2023-04-20T04:06:01.171Z,3.00
2023-04-20T04:08:28.912Z,3.00
2023-04-20T04:10:57.472Z,3.00
2023-04-20T04:13:26.328Z,3.00
2023-04-20T04:15:53.767Z,3.00
2023-04-20T04:18:22.364Z,3.00
2023-04-20T04:20:51.206Z,3.00
2023-04-20T04:23:18.738Z,2.90
2023-04-20T04:25:54.128Z,2.90
2023-04-20T04:28:25.063Z,2.90
2023-04-20T04:31:12.236Z,2.90
2023-04-20T04:33:39.906Z,3.00
2023-04-20T04:36:08.636Z,3.00
2023-04-20T04:38:36.127Z,3.00
2023-04-20T04:41:03.887Z,3.00
2023-04-20T04:43:33.578Z,2.90
2023-04-20T04:46:10.825Z,2.90
2023-04-20T04:48:40.659Z,3.00
2023-04-20T04:51:09.373Z,2.90
2023-04-20T04:53:37.197Z,2.90
2023-04-20T04:56:05.493Z,2.90
2023-04-20T04:58:33.016Z,3.00
2023-04-20T05:01:00.581Z,2.90
2023-04-20T05:03:28.409Z,2.90
2023-04-20T05:05:56.225Z,2.90
2023-04-20T05:08:26.531Z,2.90
2023-04-20T05:10:54.140Z,2.90
2023-04-20T05:13:21.731Z,2.80
2023-04-20T05:15:49.286Z,2.90
2023-04-20T05:18:16.880Z,2.90
2023-04-20T05:20:44.403Z,2.90
2023-04-20T05:23:12.180Z,2.80
2023-04-20T05:25:39.793Z,2.80
2023-04-20T05:28:07.636Z,2.80
2023-04-20T05:30:35.460Z,2.90
2023-04-20T05:33:02.978Z,2.90
2023-04-20T05:35:30.865Z,2.90
2023-04-20T05:38:02.410Z,3.00
2023-04-20T05:40:29.829Z,2.90
2023-04-20T05:42:57.230Z,3.00
2023-04-20T05:45:24.731Z,3.00
2023-04-20T05:47:54.028Z,3.00
2023-04-20T05:50:25.132Z,3.00
2023-04-20T05:52:53.182Z,2.90
2023-04-20T05:55:22.601Z,2.90
2023-04-20T05:57:52.401Z,3.00
2023-04-20T06:00:20.502Z,3.00
2023-04-20T06:02:48.289Z,2.90
2023-04-20T06:05:16.179Z,3.00
2023-04-20T06:07:43.762Z,3.00
2023-04-20T06:10:13.289Z,3.00
2023-04-20T06:12:41.472Z,3.00
2023-04-20T06:15:10.864Z,3.00
2023-04-20T06:17:41.056Z,3.10
2023-04-20T06:20:11.929Z,3.10
2023-04-20T06:22:46.141Z,3.20
2023-04-20T06:25:14.014Z,3.20
2023-04-20T06:27:41.946Z,3.20
2023-04-20T06:30:10.224Z,3.20
2023-04-20T06:32:38.259Z,3.20
2023-04-20T06:35:06.922Z,3.20
2023-04-20T06:37:36.239Z,3.20
2023-04-20T06:40:08.354Z,3.20
2023-04-20T06:42:37.277Z,3.20
2023-04-20T06:45:06.506Z,3.20
2023-04-20T06:47:34.660Z,3.20
2023-04-20T06:50:05.079Z,3.10
2023-04-20T06:52:32.712Z,3.20
2023-04-20T06:55:00.493Z,3.20
2023-04-20T06:57:28.047Z,3.20
2023-04-20T06:59:55.688Z,3.20
2023-04-20T07:02:23.805Z,3.20
2023-04-20T07:04:51.595Z,3.20
2023-04-20T07:07:19.302Z,3.20
2023-04-20T07:09:48.946Z,3.30
2023-04-20T07:12:16.877Z,3.30
2023-04-20T07:14:44.397Z,3.30
2023-04-20T07:17:11.915Z,3.30
2023-04-20T07:19:39.622Z,3.20
2023-04-20T07:22:07.481Z,3.20
2023-04-20T07:24:35.373Z,3.30
2023-04-20T07:27:03.112Z,3.20
2023-04-20T07:29:31.784Z,3.20
2023-04-20T07:32:00.392Z,3.30
2023-04-20T07:34:27.910Z,3.30
2023-04-20T07:36:55.620Z,3.20
2023-04-20T07:39:25.297Z,3.30
2023-04-20T07:41:52.891Z,3.30
2023-04-20T07:44:20.636Z,3.30
2023-04-20T07:46:49.609Z,3.30
2023-04-20T07:49:17.495Z,3.40
2023-04-20T07:51:45.514Z,3.40
2023-04-20T07:54:12.961Z,3.40
2023-04-20T07:56:40.425Z,3.40
2023-04-20T07:59:09.089Z,3.40
2023-04-20T08:01:36.915Z,3.40
2023-04-20T08:04:04.729Z,3.40
2023-04-20T08:06:32.910Z,3.40
2023-04-20T08:09:00.464Z,3.40
2023-04-20T08:11:27.940Z,3.40
2023-04-20T08:13:57.250Z,3.40
2023-04-20T08:16:26.132Z,3.50
2023-04-20T08:18:53.799Z,3.50
2023-04-20T08:21:25.434Z,3.60
2023-04-20T08:23:53.713Z,3.60
2023-04-20T08:26:25.268Z,3.60
2023-04-20T08:28:53.096Z,3.60
2023-04-20T08:31:20.989Z,3.60
2023-04-20T08:33:48.633Z,3.50
2023-04-20T08:36:16.133Z,3.60
2023-04-20T08:38:43.684Z,3.60
2023-04-20T08:41:15.092Z,3.60
2023-04-20T08:43:42.610Z,3.60
2023-04-20T08:46:10.272Z,3.70
2023-04-20T08:48:39.216Z,3.80
2023-04-20T08:51:07.192Z,3.90
2023-04-20T08:53:34.726Z,3.90
2023-04-20T08:56:02.363Z,4.00
2023-04-20T08:58:32.149Z,3.90
2023-04-20T09:01:02.763Z,3.90
2023-04-20T09:03:42.622Z,4.00
2023-04-20T09:06:18.186Z,4.10
2023-04-20T09:08:46.734Z,4.10
2023-04-20T09:11:24.225Z,4.00
2023-04-20T09:14:16.613Z,4.00
2023-04-20T09:16:52.120Z,4.00
2023-04-20T09:19:26.827Z,4.10
2023-04-20T09:21:56.278Z,4.20
2023-04-20T09:24:31.568Z,4.30
2023-04-20T09:26:59.806Z,4.40
2023-04-20T09:29:27.856Z,4.40
2023-04-20T09:31:55.640Z,4.40
2023-04-20T09:34:24.252Z,4.20
2023-04-20T09:36:54.422Z,4.30
2023-04-20T09:39:25.242Z,4.30
2023-04-20T09:41:52.962Z,4.30
2023-04-20T09:44:21.164Z,4.40
2023-04-20T09:46:48.714Z,4.40
2023-04-20T09:49:16.231Z,4.40
2023-04-20T09:51:47.406Z,4.60
2023-04-20T09:54:16.531Z,4.70
2023-04-20T09:56:45.584Z,4.90
2023-04-20T09:59:13.849Z,4.80
2023-04-20T10:01:41.692Z,4.80
2023-04-20T10:04:11.001Z,4.80
2023-04-20T10:06:39.181Z,4.80
2023-04-20T10:09:08.826Z,4.80
2023-04-20T10:11:52.465Z,4.90
2023-04-20T10:14:25.990Z,4.70
2023-04-20T10:17:08.704Z,4.60
2023-04-20T10:19:46.017Z,4.70
2023-04-20T10:22:29.163Z,4.70
2023-04-20T10:24:56.747Z,4.80
2023-04-20T10:27:24.270Z,4.90
2023-04-20T10:29:51.840Z,5.00
2023-04-20T10:32:27.581Z,5.00
2023-04-20T10:35:06.858Z,4.90
2023-04-20T10:37:34.991Z,4.90
2023-04-20T10:40:07.506Z,4.90
2023-04-20T10:42:45.149Z,5.00
2023-04-20T10:45:13.018Z,4.90
2023-04-20T10:47:41.083Z,4.80
2023-04-20T10:50:10.741Z,4.80
2023-04-20T10:52:40.419Z,5.00
2023-04-20T10:55:21.652Z,5.10
2023-04-20T10:57:50.188Z,5.20
2023-04-20T11:00:20.365Z,5.10
2023-04-20T11:02:53.355Z,5.10
2023-04-20T11:05:22.463Z,5.30
2023-04-20T11:07:53.640Z,5.30
2023-04-20T11:10:23.941Z,5.30
2023-04-20T11:12:52.000Z,5.30
2023-04-20T11:15:19.660Z,5.30
2023-04-20T11:17:47.205Z,5.30
2023-04-20T11:20:17.070Z,5.30
2023-04-20T11:22:44.797Z,5.40
2023-04-20T11:25:12.939Z,5.50
2023-04-20T11:27:42.102Z,5.60
2023-04-20T11:30:09.998Z,5.80
2023-04-20T11:32:38.336Z,5.80
2023-04-20T11:35:09.295Z,5.70
2023-04-20T11:37:51.483Z,5.50
2023-04-20T11:40:19.543Z,5.50
2023-04-20T11:42:47.280Z,5.60
2023-04-20T11:45:15.780Z,5.60
2023-04-20T11:47:43.640Z,5.70
2023-04-20T11:50:12.156Z,5.80
2023-04-20T11:52:41.988Z,5.70
2023-04-20T11:55:11.329Z,5.90
2023-04-20T11:57:38.919Z,5.90
2023-04-20T12:00:07.209Z,6.00
2023-04-20T12:02:41.308Z,6.00
2023-04-20T12:05:09.819Z,6.10
2023-04-20T12:07:37.634Z,6.40
2023-04-20T12:10:06.809Z,6.50
2023-04-20T12:12:34.373Z,6.50
2023-04-20T12:15:02.144Z,6.40
2023-04-20T12:17:29.712Z,6.20
2023-04-20T12:19:57.954Z,6.20
2023-04-20T12:22:25.815Z,6.20
2023-04-20T12:24:53.389Z,6.30
2023-04-20T12:27:20.981Z,6.30
2023-04-20T12:29:48.575Z,6.40
2023-04-20T12:32:16.190Z,6.40
2023-04-20T12:34:43.720Z,6.40
2023-04-20T12:37:11.169Z,6.40
2023-04-20T12:39:38.735Z,6.40
2023-04-20T12:42:06.416Z,6.40
2023-04-20T12:44:33.980Z,6.40
2023-04-20T12:47:01.500Z,6.40
2023-04-20T12:49:29.170Z,6.30
2023-04-20T12:51:56.741Z,6.20
2023-04-20T12:54:24.370Z,6.20
2023-04-20T12:56:51.906Z,6.30
2023-04-20T12:59:19.405Z,6.30
2023-04-20T13:01:47.012Z,6.30
2023-04-20T13:04:16.141Z,6.40
2023-04-20T13:06:43.912Z,6.50
2023-04-20T13:09:11.533Z,6.50
2023-04-20T13:11:39.121Z,6.40
2023-04-20T13:14:06.688Z,6.40
2023-04-20T13:16:34.258Z,6.50
2023-04-20T13:19:02.773Z,6.60
2023-04-20T13:21:30.309Z,6.60
2023-04-20T13:23:57.904Z,6.60
2023-04-20T13:26:25.778Z,6.60
2023-04-20T13:28:54.151Z,6.60
2023-04-20T13:31:21.661Z,6.60
2023-04-20T13:33:54.320Z,6.60
2023-04-20T13:36:25.794Z,6.70
2023-04-20T13:38:53.521Z,6.80
2023-04-20T13:41:21.967Z,6.90
2023-04-20T13:43:50.101Z,7.00
2023-04-20T13:46:19.989Z,7.20
2023-04-20T13:48:47.599Z,7.30
2023-04-20T13:51:15.238Z,7.40
2023-04-20T13:53:43.014Z,7.50
2023-04-20T13:56:10.683Z,7.50
2023-04-20T13:58:38.265Z,7.50
2023-04-20T14:01:13.132Z,7.60
2023-04-20T14:03:41.867Z,7.60
2023-04-20T14:06:09.407Z,7.70
2023-04-20T14:08:36.971Z,7.80
2023-04-20T14:11:05.338Z,7.80
2023-04-20T14:13:32.930Z,8.00
2023-04-20T14:16:00.533Z,8.00
2023-04-20T14:18:28.115Z,8.00
2023-04-20T14:20:55.673Z,8.10
2023-04-20T14:23:23.177Z,8.10
2023-04-20T14:25:50.786Z,8.20
2023-04-20T14:28:18.475Z,8.20
2023-04-20T14:30:46.367Z,8.20
2023-04-20T14:33:17.246Z,8.00
2023-04-20T14:35:46.278Z,8.00
2023-04-20T14:38:13.921Z,8.10
2023-04-20T14:40:41.512Z,8.10
2023-04-20T14:43:09.104Z,8.20
2023-04-20T14:45:36.680Z,8.20
2023-04-20T14:48:04.341Z,8.20
2023-04-20T14:50:32.463Z,8.30
2023-04-20T14:52:59.977Z,8.30
2023-04-20T14:55:28.685Z,8.30
2023-04-20T14:57:57.635Z,8.30
2023-04-20T15:00:28.292Z,8.30
2023-04-20T15:02:56.927Z,8.40
2023-04-20T15:05:26.035Z,8.50
2023-04-20T15:07:53.644Z,8.70
2023-04-20T15:10:21.974Z,8.70
2023-04-20T15:12:49.510Z,8.70
2023-04-20T15:15:17.104Z,8.70
2023-04-20T15:17:46.772Z,8.70
2023-04-20T15:20:15.397Z,8.80
2023-04-20T15:22:42.886Z,8.80
2023-04-20T15:25:10.719Z,9.00
2023-04-20T15:27:38.334Z,9.10
2023-04-20T15:30:06.716Z,9.30
2023-04-20T15:32:34.273Z,9.40
2023-04-20T15:35:02.536Z,9.50
2023-04-20T15:37:30.204Z,9.70
2023-04-20T15:39:59.113Z,9.70
2023-04-20T15:42:27.624Z,9.90
2023-04-20T15:44:55.292Z,10.10
2023-04-20T15:47:22.761Z,10.10
2023-04-20T15:49:50.360Z,10.00
2023-04-20T15:52:17.887Z,10.00
2023-04-20T15:54:48.234Z,9.90
2023-04-20T15:57:15.784Z,9.90
2023-04-20T15:59:43.665Z,10.00
2023-04-20T16:02:11.419Z,10.10
2023-04-20T16:04:39.143Z,10.20
2023-04-20T16:07:06.765Z,10.30
2023-04-20T16:09:35.246Z,10.50
2023-04-20T16:12:03.597Z,10.50
2023-04-20T16:14:31.730Z,10.50
2023-04-20T16:17:02.589Z,10.40
2023-04-20T16:19:31.226Z,10.20
2023-04-20T16:21:58.795Z,10.30
2023-04-20T16:24:26.558Z,10.60
2023-04-20T16:26:55.865Z,10.80
2023-04-20T16:29:23.521Z,10.70
2023-04-20T16:31:51.134Z,10.60
2023-04-20T16:34:19.089Z,10.50
2023-04-20T16:36:46.761Z,10.50
2023-04-20T16:39:14.206Z,10.70
2023-04-20T16:41:41.727Z,11.00
2023-04-20T16:44:09.266Z,10.80
2023-04-20T16:46:36.858Z,10.70
2023-04-20T16:49:06.710Z,10.70
2023-04-20T16:51:34.551Z,10.70
2023-04-20T16:54:03.241Z,10.60
2023-04-20T16:56:30.760Z,10.40
2023-04-20T16:58:58.359Z,10.40
2023-04-20T17:01:26.011Z,10.30
2023-04-20T17:03:53.646Z,10.30
2023-04-20T17:06:21.428Z,10.30
2023-04-20T17:08:50.248Z,10.30
2023-04-20T17:11:19.429Z,10.20
2023-04-20T17:13:46.901Z,10.10
2023-04-20T17:16:14.499Z,9.90
2023-04-20T17:18:42.117Z,9.80
2023-04-20T17:21:09.702Z,9.60
2023-04-20T17:23:37.224Z,9.50
2023-04-20T17:26:04.892Z,9.40
2023-04-20T17:28:32.404Z,9.40
2023-04-20T17:31:00.001Z,9.30
2023-04-20T17:33:27.489Z,9.10
2023-04-20T17:35:56.865Z,8.90
2023-04-20T17:38:24.455Z,8.80
2023-04-20T17:40:52.077Z,8.70
2023-04-20T17:43:19.517Z,8.60
2023-04-20T17:45:50.635Z,8.50
2023-04-20T17:48:18.103Z,8.50
2023-04-20T17:50:50.078Z,8.50
2023-04-20T17:53:17.587Z,8.40
2023-04-20T17:55:45.142Z,8.30
2023-04-20T17:58:13.050Z,8.20
2023-04-20T18:00:40.604Z,8.00
2023-04-20T18:03:09.461Z,7.90
2023-04-20T18:05:37.326Z,7.80
2023-04-20T18:08:05.056Z,7.70
2023-04-20T18:10:33.977Z,7.60
2023-04-20T18:13:01.537Z,7.50
2023-04-20T18:15:29.002Z,7.50
2023-04-20T18:17:56.580Z,7.40
2023-04-20T18:20:24.618Z,7.30
2023-04-20T18:22:52.289Z,7.30
2023-04-20T18:25:20.192Z,7.30
2023-04-20T18:27:47.772Z,7.20
2023-04-20T18:30:16.152Z,7.20
2023-04-20T18:32:43.714Z,7.20
2023-04-20T18:35:11.389Z,7.20
2023-04-20T18:37:39.090Z,7.20
2023-04-20T18:40:07.376Z,7.10
2023-04-20T18:42:35.647Z,7.10
2023-04-20T18:45:03.822Z,7.10
2023-04-20T18:47:32.101Z,7.10
2023-04-20T18:49:59.606Z,7.10
2023-04-20T18:52:27.071Z,7.20
2023-04-20T18:54:55.376Z,7.10
2023-04-20T18:57:26.136Z,7.10
2023-04-20T18:59:53.726Z,7.10
2023-04-20T19:02:22.999Z,7.10
2023-04-20T19:04:51.007Z,7.10
2023-04-20T19:07:18.854Z,7.10
2023-04-20T19:09:46.426Z,7.10
2023-04-20T19:12:14.050Z,7.10
2023-04-20T19:14:41.686Z,7.10
2023-04-20T19:17:09.268Z,7.10
2023-04-20T19:19:36.822Z,7.00
2023-04-20T19:22:04.462Z,7.00
2023-04-20T19:24:32.710Z,7.00
2023-04-20T19:27:00.878Z,7.00
2023-04-20T19:29:28.584Z,6.90
2023-04-20T19:31:56.166Z,6.90
2023-04-20T19:34:23.826Z,6.90
2023-04-20T19:36:51.535Z,6.90
2023-04-20T19:39:19.131Z,6.80
2023-04-20T19:41:47.236Z,6.80
2023-04-20T19:44:14.790Z,6.80
2023-04-20T19:46:43.494Z,6.70
2023-04-20T19:49:11.110Z,6.70
2023-04-20T19:51:38.612Z,6.70
2023-04-20T19:54:06.241Z,6.60
2023-04-20T19:56:34.490Z,6.60
2023-04-20T19:59:01.972Z,6.60
2023-04-20T20:01:29.832Z,6.50
2023-04-20T20:03:57.916Z,6.50
2023-04-20T20:06:26.983Z,6.50
2023-04-20T20:08:54.453Z,6.50
2023-04-20T20:11:22.534Z,6.50
2023-04-20T20:13:50.286Z,6.50
2023-04-20T20:16:18.277Z,6.50
2023-04-20T20:18:48.079Z,6.40
2023-04-20T20:21:15.907Z,6.40
2023-04-20T20:23:43.479Z,6.40
2023-04-20T20:26:11.549Z,6.40
2023-04-20T20:28:39.031Z,6.40
2023-04-20T20:31:06.621Z,6.40
2023-04-20T20:33:34.357Z,6.40
2023-04-20T20:36:04.346Z,6.40
2023-04-20T20:38:32.286Z,6.40
2023-04-20T20:40:59.728Z,6.40
2023-04-20T20:43:28.485Z,6.30
2023-04-20T20:45:56.009Z,6.30
2023-04-20T20:48:23.794Z,6.30
2023-04-20T20:50:52.155Z,6.30
2023-04-20T20:53:20.431Z,6.30
2023-04-20T20:55:47.891Z,6.30
2023-04-20T20:58:15.372Z,6.30
2023-04-20T21:00:43.654Z,6.30
2023-04-20T21:03:12.549Z,6.20
2023-04-20T21:05:41.270Z,6.20
2023-04-20T21:08:10.099Z,6.20
2023-04-20T21:10:38.286Z,6.20
2023-04-20T21:13:07.154Z,6.20
2023-04-20T21:15:34.941Z,6.20
2023-04-20T21:18:02.420Z,6.20
2023-04-20T21:20:29.912Z,6.20
2023-04-20T21:22:57.422Z,6.20
2023-04-20T21:25:25.131Z,6.20
2023-04-20T21:27:52.657Z,6.10
2023-04-20T21:30:20.266Z,6.10
2023-04-20T21:32:47.832Z,6.10
2023-04-20T21:35:15.627Z,6.10
2023-04-20T21:37:43.666Z,6.10
2023-04-20T21:40:11.736Z,6.10
2023-04-20T21:42:40.353Z,6.10
2023-04-20T21:45:08.421Z,6.10
2023-04-20T21:47:36.093Z,6.10
2023-04-20T21:50:03.881Z,6.10
2023-04-20T21:52:33.062Z,6.10
2023-04-20T21:55:00.707Z,6.10
2023-04-20T21:57:29.669Z,6.10
2023-04-20T21:59:57.600Z,6.10
2023-04-20T22:02:25.345Z,6.10
2023-04-20T22:04:53.100Z,6.00
2023-04-20T22:07:20.849Z,6.10
2023-04-20T22:09:48.275Z,6.00
2023-04-20T22:12:18.036Z,6.00
2023-04-20T22:14:47.425Z,6.00
2023-04-20T22:17:14.965Z,6.00
2023-04-20T22:19:42.612Z,6.00
2023-04-20T22:22:10.106Z,6.00
2023-04-20T22:24:37.608Z,6.00
2023-04-20T22:27:05.294Z,6.00
2023-04-20T22:29:32.902Z,6.00
2023-04-20T22:32:00.367Z,6.00
2023-04-20T22:34:27.814Z,6.00
2023-04-20T22:36:55.307Z,6.00
2023-04-20T22:39:23.209Z,6.00
2023-04-20T22:41:50.717Z,6.00
2023-04-20T22:44:19.207Z,6.00
2023-04-20T22:46:46.975Z,6.00
2023-04-20T22:49:15.502Z,6.00
2023-04-20T22:51:43.125Z,6.00
2023-04-20T22:54:10.681Z,6.00
2023-04-20T22:56:38.123Z,6.00
2023-04-20T22:59:05.733Z,6.00
2023-04-20T23:01:33.307Z,6.00
2023-04-20T23:04:01.180Z,6.00
2023-04-20T23:06:29.616Z,6.00
2023-04-20T23:08:59.244Z,6.00
2023-04-20T23:11:29.159Z,6.00
2023-04-20T23:13:56.638Z,6.00
2023-04-20T23:16:24.375Z,6.00
2023-04-20T23:18:52.572Z,6.00
2023-04-20T23:21:20.169Z,6.00
2023-04-20T23:23:47.659Z,6.10
2023-04-20T23:26:15.294Z,6.00
2023-04-20T23:28:42.800Z,6.10
2023-04-20T23:31:10.366Z,6.10
2023-04-20T23:33:37.931Z,6.10
2023-04-20T23:36:05.690Z,6.00
2023-04-20T23:38:33.122Z,6.00
2023-04-20T23:41:00.815Z,6.00
2023-04-20T23:43:28.263Z,6.00
2023-04-20T23:45:55.768Z,6.00
2023-04-20T23:48:23.256Z,6.00
2023-04-20T23:50:50.874Z,5.90
2023-04-20T23:53:19.255Z,5.90
2023-04-20T23:55:51.741Z,5.90
2023-04-20T23:58:19.344Z,5.80
